sensor_id;sensor_type;location;lat;lon;timestamp;temperature;humidity
21163;DHT22;10739;52.198;20.908;2022-07-23T00:01:23;21.90;99.90
21163;DHT22;10739;52.198;20.908;2022-07-23T00:03:49;21.90;99.90
21163;DHT22;10739;52.198;20.908;2022-07-23T00:06:17;21.90;99.90
21163;DHT22;10739;52.198;20.908;2022-07-23T00:08:43;21.90;99.90
21163;DHT22;10739;52.198;20.908;2022-07-23T00:11:10;21.80;99.90
21163;DHT22;10739;52.198;20.908;2022-07-23T00:13:36;21.80;99.90
21163;DHT22;10739;52.198;20.908;2022-07-23T00:16:02;21.80;99.90
21163;DHT22;10739;52.198;20.908;2022-07-23T00:18:29;21.70;99.90
21163;DHT22;10739;52.198;20.908;2022-07-23T00:20:55;21.80;99.90
21163;DHT22;10739;52.198;20.908;2022-07-23T00:23:21;21.70;99.90
21163;DHT22;10739;52.198;20.908;2022-07-23T00:25:48;21.70;99.90
21163;DHT22;10739;52.198;20.908;2022-07-23T00:28:14;21.70;99.90
21163;DHT22;10739;52.198;20.908;2022-07-23T00:30:40;21.60;99.90
21163;DHT22;10739;52.198;20.908;2022-07-23T00:33:07;21.60;99.90
21163;DHT22;10739;52.198;20.908;2022-07-23T00:35:37;21.60;99.90
21163;DHT22;10739;52.198;20.908;2022-07-23T00:38:10;21.50;99.90
21163;DHT22;10739;52.198;20.908;2022-07-23T00:40:37;21.50;99.90
21163;DHT22;10739;52.198;20.908;2022-07-23T00:43:04;21.50;99.90
21163;DHT22;10739;52.198;20.908;2022-07-23T00:45:31;21.40;99.90
21163;DHT22;10739;52.198;20.908;2022-07-23T00:47:58;21.40;99.90
21163;DHT22;10739;52.198;20.908;2022-07-23T00:50:25;21.40;99.90
21163;DHT22;10739;52.198;20.908;2022-07-23T00:52:52;21.40;99.90
21163;DHT22;10739;52.198;20.908;2022-07-23T00:55:18;21.30;99.90
21163;DHT22;10739;52.198;20.908;2022-07-23T00:57:44;21.30;99.90
21163;DHT22;10739;52.198;20.908;2022-07-23T01:00:13;21.30;99.90
21163;DHT22;10739;52.198;20.908;2022-07-23T01:02:40;21.30;99.90
21163;DHT22;10739;52.198;20.908;2022-07-23T01:05:08;21.30;99.90
21163;DHT22;10739;52.198;20.908;2022-07-23T01:07:35;21.30;99.90
21163;DHT22;10739;52.198;20.908;2022-07-23T01:10:03;21.30;99.90
21163;DHT22;10739;52.198;20.908;2022-07-23T01:12:50;21.30;99.90
21163;DHT22;10739;52.198;20.908;2022-07-23T01:15:16;21.30;99.90
21163;DHT22;10739;52.198;20.908;2022-07-23T01:17:42;21.20;99.90
21163;DHT22;10739;52.198;20.908;2022-07-23T01:20:09;21.20;99.90
21163;DHT22;10739;52.198;20.908;2022-07-23T01:22:35;21.20;99.90
21163;DHT22;10739;52.198;20.908;2022-07-23T01:25:01;21.20;99.90
21163;DHT22;10739;52.198;20.908;2022-07-23T01:27:27;21.20;99.90
21163;DHT22;10739;52.198;20.908;2022-07-23T01:29:56;21.10;99.90
21163;DHT22;10739;52.198;20.908;2022-07-23T01:32:22;21.10;99.90
21163;DHT22;10739;52.198;20.908;2022-07-23T01:34:48;21.10;99.90
21163;DHT22;10739;52.198;20.908;2022-07-23T01:37:15;21.10;99.90
21163;DHT22;10739;52.198;20.908;2022-07-23T01:39:41;21.20;99.90
21163;DHT22;10739;52.198;20.908;2022-07-23T01:42:07;21.20;99.90
21163;DHT22;10739;52.198;20.908;2022-07-23T01:44:34;21.20;99.90
21163;DHT22;10739;52.198;20.908;2022-07-23T01:47:00;21.20;99.90
21163;DHT22;10739;52.198;20.908;2022-07-23T01:49:26;21.10;99.90
21163;DHT22;10739;52.198;20.908;2022-07-23T01:51:52;21.10;99.90
21163;DHT22;10739;52.198;20.908;2022-07-23T01:54:29;21.10;99.90
21163;DHT22;10739;52.198;20.908;2022-07-23T01:56:56;21.10;99.90
21163;DHT22;10739;52.198;20.908;2022-07-23T01:59:24;21.00;99.90
21163;DHT22;10739;52.198;20.908;2022-07-23T02:01:51;21.00;99.90
21163;DHT22;10739;52.198;20.908;2022-07-23T02:04:19;21.00;99.90
21163;DHT22;10739;52.198;20.908;2022-07-23T02:06:47;20.90;99.90
21163;DHT22;10739;52.198;20.908;2022-07-23T02:09:14;20.90;99.90
21163;DHT22;10739;52.198;20.908;2022-07-23T02:11:41;20.90;99.90
21163;DHT22;10739;52.198;20.908;2022-07-23T02:14:07;20.90;99.90
21163;DHT22;10739;52.198;20.908;2022-07-23T02:16:34;20.90;99.90
21163;DHT22;10739;52.198;20.908;2022-07-23T02:19:00;20.80;99.90
21163;DHT22;10739;52.198;20.908;2022-07-23T02:21:27;20.80;99.90
21163;DHT22;10739;52.198;20.908;2022-07-23T02:23:53;20.70;99.90
21163;DHT22;10739;52.198;20.908;2022-07-23T02:26:20;20.70;99.90
21163;DHT22;10739;52.198;20.908;2022-07-23T02:28:46;20.70;99.90
21163;DHT22;10739;52.198;20.908;2022-07-23T02:31:12;20.60;99.90
21163;DHT22;10739;52.198;20.908;2022-07-23T02:33:39;20.60;99.90
21163;DHT22;10739;52.198;20.908;2022-07-23T02:36:05;20.50;99.90
21163;DHT22;10739;52.198;20.908;2022-07-23T02:38:32;20.50;99.90
21163;DHT22;10739;52.198;20.908;2022-07-23T02:40:58;20.60;99.90
21163;DHT22;10739;52.198;20.908;2022-07-23T02:43:24;20.50;99.90
21163;DHT22;10739;52.198;20.908;2022-07-23T02:45:50;20.50;99.90
21163;DHT22;10739;52.198;20.908;2022-07-23T02:48:16;20.50;99.90
21163;DHT22;10739;52.198;20.908;2022-07-23T02:50:43;20.50;99.90
21163;DHT22;10739;52.198;20.908;2022-07-23T02:53:09;20.50;99.90
21163;DHT22;10739;52.198;20.908;2022-07-23T02:55:35;20.40;99.90
21163;DHT22;10739;52.198;20.908;2022-07-23T02:58:02;20.40;99.90
21163;DHT22;10739;52.198;20.908;2022-07-23T03:00:28;20.30;99.90
21163;DHT22;10739;52.198;20.908;2022-07-23T03:02:54;20.30;99.90
21163;DHT22;10739;52.198;20.908;2022-07-23T03:05:20;20.30;99.90
21163;DHT22;10739;52.198;20.908;2022-07-23T03:07:46;20.30;99.90
21163;DHT22;10739;52.198;20.908;2022-07-23T03:10:12;20.20;99.90
21163;DHT22;10739;52.198;20.908;2022-07-23T03:12:39;20.20;99.90
21163;DHT22;10739;52.198;20.908;2022-07-23T03:15:05;20.20;99.90
21163;DHT22;10739;52.198;20.908;2022-07-23T03:17:32;20.20;99.90
21163;DHT22;10739;52.198;20.908;2022-07-23T03:19:59;20.20;99.90
21163;DHT22;10739;52.198;20.908;2022-07-23T03:22:25;20.20;99.90
21163;DHT22;10739;52.198;20.908;2022-07-23T03:24:51;20.20;99.90
21163;DHT22;10739;52.198;20.908;2022-07-23T03:27:21;20.30;99.90
21163;DHT22;10739;52.198;20.908;2022-07-23T03:29:50;20.30;99.90
21163;DHT22;10739;52.198;20.908;2022-07-23T03:32:21;20.20;99.90
21163;DHT22;10739;52.198;20.908;2022-07-23T03:34:48;20.30;99.90
21163;DHT22;10739;52.198;20.908;2022-07-23T03:37:15;20.30;99.90
21163;DHT22;10739;52.198;20.908;2022-07-23T03:39:42;20.30;99.90
21163;DHT22;10739;52.198;20.908;2022-07-23T03:42:08;20.20;99.90
21163;DHT22;10739;52.198;20.908;2022-07-23T03:44:35;20.30;99.90
21163;DHT22;10739;52.198;20.908;2022-07-23T03:47:05;20.30;99.90
21163;DHT22;10739;52.198;20.908;2022-07-23T03:49:32;20.30;99.90
21163;DHT22;10739;52.198;20.908;2022-07-23T03:52:00;20.30;99.90
21163;DHT22;10739;52.198;20.908;2022-07-23T03:54:27;20.30;99.90
21163;DHT22;10739;52.198;20.908;2022-07-23T03:56:53;20.40;99.90
21163;DHT22;10739;52.198;20.908;2022-07-23T03:59:19;20.40;99.90
21163;DHT22;10739;52.198;20.908;2022-07-23T04:01:45;20.40;99.90
21163;DHT22;10739;52.198;20.908;2022-07-23T04:04:11;20.40;99.90
21163;DHT22;10739;52.198;20.908;2022-07-23T04:06:37;20.50;99.90
21163;DHT22;10739;52.198;20.908;2022-07-23T04:09:03;20.40;99.90
21163;DHT22;10739;52.198;20.908;2022-07-23T04:11:30;20.40;99.90
21163;DHT22;10739;52.198;20.908;2022-07-23T04:13:56;20.40;99.90
21163;DHT22;10739;52.198;20.908;2022-07-23T04:16:22;20.40;99.90
21163;DHT22;10739;52.198;20.908;2022-07-23T04:18:49;20.50;99.90
21163;DHT22;10739;52.198;20.908;2022-07-23T04:21:15;20.50;99.90
21163;DHT22;10739;52.198;20.908;2022-07-23T04:23:41;20.60;99.90
21163;DHT22;10739;52.198;20.908;2022-07-23T04:26:07;20.70;99.90
21163;DHT22;10739;52.198;20.908;2022-07-23T04:28:33;20.80;99.90
21163;DHT22;10739;52.198;20.908;2022-07-23T04:30:59;20.80;99.90
21163;DHT22;10739;52.198;20.908;2022-07-23T04:33:26;20.90;99.90
21163;DHT22;10739;52.198;20.908;2022-07-23T04:35:52;21.00;99.90
21163;DHT22;10739;52.198;20.908;2022-07-23T04:38:18;21.10;99.90
21163;DHT22;10739;52.198;20.908;2022-07-23T04:40:44;21.10;99.90
21163;DHT22;10739;52.198;20.908;2022-07-23T04:43:11;21.20;99.90
21163;DHT22;10739;52.198;20.908;2022-07-23T04:45:37;21.30;99.90
21163;DHT22;10739;52.198;20.908;2022-07-23T04:48:04;21.30;99.90
21163;DHT22;10739;52.198;20.908;2022-07-23T04:50:30;21.30;99.90
21163;DHT22;10739;52.198;20.908;2022-07-23T04:52:56;21.40;99.90
21163;DHT22;10739;52.198;20.908;2022-07-23T04:55:23;21.40;99.90
21163;DHT22;10739;52.198;20.908;2022-07-23T04:57:49;21.50;99.90
21163;DHT22;10739;52.198;20.908;2022-07-23T05:00:15;21.50;99.90
21163;DHT22;10739;52.198;20.908;2022-07-23T05:02:42;21.60;99.90
21163;DHT22;10739;52.198;20.908;2022-07-23T05:05:09;21.70;99.90
21163;DHT22;10739;52.198;20.908;2022-07-23T05:07:35;21.80;99.90
21163;DHT22;10739;52.198;20.908;2022-07-23T05:10:01;21.90;99.90
21163;DHT22;10739;52.198;20.908;2022-07-23T05:12:27;21.90;99.90
21163;DHT22;10739;52.198;20.908;2022-07-23T05:14:54;22.10;99.90
21163;DHT22;10739;52.198;20.908;2022-07-23T05:17:20;22.30;99.90
21163;DHT22;10739;52.198;20.908;2022-07-23T05:19:46;22.40;99.90
21163;DHT22;10739;52.198;20.908;2022-07-23T05:22:12;22.50;99.90
21163;DHT22;10739;52.198;20.908;2022-07-23T05:24:38;22.50;99.90
21163;DHT22;10739;52.198;20.908;2022-07-23T05:27:04;22.60;99.90
21163;DHT22;10739;52.198;20.908;2022-07-23T05:29:30;22.70;99.90
21163;DHT22;10739;52.198;20.908;2022-07-23T05:31:56;22.70;99.90
21163;DHT22;10739;52.198;20.908;2022-07-23T05:34:23;22.90;99.90
21163;DHT22;10739;52.198;20.908;2022-07-23T05:36:49;23.00;99.90
21163;DHT22;10739;52.198;20.908;2022-07-23T05:39:15;23.10;99.90
21163;DHT22;10739;52.198;20.908;2022-07-23T05:41:41;23.20;99.90
21163;DHT22;10739;52.198;20.908;2022-07-23T05:44:07;23.30;99.90
21163;DHT22;10739;52.198;20.908;2022-07-23T05:46:33;23.40;99.90
21163;DHT22;10739;52.198;20.908;2022-07-23T05:48:59;23.50;99.90
21163;DHT22;10739;52.198;20.908;2022-07-23T05:51:25;23.70;99.90
21163;DHT22;10739;52.198;20.908;2022-07-23T05:53:52;23.80;99.90
21163;DHT22;10739;52.198;20.908;2022-07-23T05:56:18;23.90;99.90
21163;DHT22;10739;52.198;20.908;2022-07-23T05:58:45;23.90;99.90
21163;DHT22;10739;52.198;20.908;2022-07-23T06:01:11;24.00;99.90
21163;DHT22;10739;52.198;20.908;2022-07-23T06:03:38;24.20;99.90
21163;DHT22;10739;52.198;20.908;2022-07-23T06:06:05;24.30;99.90
21163;DHT22;10739;52.198;20.908;2022-07-23T06:08:31;24.30;99.90
21163;DHT22;10739;52.198;20.908;2022-07-23T06:10:58;24.30;99.90
21163;DHT22;10739;52.198;20.908;2022-07-23T06:13:24;24.40;99.90
21163;DHT22;10739;52.198;20.908;2022-07-23T06:15:50;24.40;99.90
21163;DHT22;10739;52.198;20.908;2022-07-23T06:18:16;24.60;99.90
21163;DHT22;10739;52.198;20.908;2022-07-23T06:20:43;24.70;99.90
21163;DHT22;10739;52.198;20.908;2022-07-23T06:23:09;24.70;99.90
21163;DHT22;10739;52.198;20.908;2022-07-23T06:25:35;24.80;99.90
21163;DHT22;10739;52.198;20.908;2022-07-23T06:28:02;24.90;99.90
21163;DHT22;10739;52.198;20.908;2022-07-23T06:30:28;25.00;99.90
21163;DHT22;10739;52.198;20.908;2022-07-23T06:32:54;25.10;99.90
21163;DHT22;10739;52.198;20.908;2022-07-23T06:35:21;25.10;99.90
21163;DHT22;10739;52.198;20.908;2022-07-23T06:37:47;25.20;99.90
21163;DHT22;10739;52.198;20.908;2022-07-23T06:40:13;25.30;99.90
21163;DHT22;10739;52.198;20.908;2022-07-23T06:42:39;25.40;99.90
21163;DHT22;10739;52.198;20.908;2022-07-23T06:45:07;25.30;99.90
21163;DHT22;10739;52.198;20.908;2022-07-23T06:47:34;25.40;99.90
21163;DHT22;10739;52.198;20.908;2022-07-23T06:50:00;25.50;99.90
21163;DHT22;10739;52.198;20.908;2022-07-23T06:52:26;25.50;99.90
21163;DHT22;10739;52.198;20.908;2022-07-23T06:54:53;25.50;99.90
21163;DHT22;10739;52.198;20.908;2022-07-23T06:57:19;25.60;99.90
21163;DHT22;10739;52.198;20.908;2022-07-23T06:59:45;25.60;99.90
21163;DHT22;10739;52.198;20.908;2022-07-23T07:02:11;25.70;99.90
21163;DHT22;10739;52.198;20.908;2022-07-23T07:04:38;25.80;99.90
21163;DHT22;10739;52.198;20.908;2022-07-23T07:07:04;25.90;99.90
21163;DHT22;10739;52.198;20.908;2022-07-23T07:09:30;26.00;99.90
21163;DHT22;10739;52.198;20.908;2022-07-23T07:11:56;26.20;99.90
21163;DHT22;10739;52.198;20.908;2022-07-23T07:14:22;26.20;99.90
21163;DHT22;10739;52.198;20.908;2022-07-23T07:16:49;26.40;99.90
21163;DHT22;10739;52.198;20.908;2022-07-23T07:19:15;26.60;99.90
21163;DHT22;10739;52.198;20.908;2022-07-23T07:21:41;26.70;99.90
21163;DHT22;10739;52.198;20.908;2022-07-23T07:24:07;26.80;99.90
21163;DHT22;10739;52.198;20.908;2022-07-23T07:26:34;26.90;99.90
21163;DHT22;10739;52.198;20.908;2022-07-23T07:29:00;27.10;99.90
21163;DHT22;10739;52.198;20.908;2022-07-23T07:31:26;27.40;99.90
21163;DHT22;10739;52.198;20.908;2022-07-23T07:33:53;27.40;99.90
21163;DHT22;10739;52.198;20.908;2022-07-23T07:36:19;27.50;99.90
21163;DHT22;10739;52.198;20.908;2022-07-23T07:38:45;27.50;99.90
21163;DHT22;10739;52.198;20.908;2022-07-23T07:41:11;27.70;99.90
21163;DHT22;10739;52.198;20.908;2022-07-23T07:43:39;27.80;99.90
21163;DHT22;10739;52.198;20.908;2022-07-23T07:46:05;28.10;99.90
21163;DHT22;10739;52.198;20.908;2022-07-23T07:48:36;28.30;99.90
21163;DHT22;10739;52.198;20.908;2022-07-23T07:51:04;28.40;99.90
21163;DHT22;10739;52.198;20.908;2022-07-23T07:53:31;28.60;99.90
21163;DHT22;10739;52.198;20.908;2022-07-23T07:55:57;28.60;99.90
21163;DHT22;10739;52.198;20.908;2022-07-23T07:58:23;28.70;99.90
21163;DHT22;10739;52.198;20.908;2022-07-23T08:00:49;28.40;99.90
21163;DHT22;10739;52.198;20.908;2022-07-23T08:03:17;28.40;99.90
21163;DHT22;10739;52.198;20.908;2022-07-23T08:05:43;28.70;99.90
21163;DHT22;10739;52.198;20.908;2022-07-23T08:08:09;28.60;99.90
21163;DHT22;10739;52.198;20.908;2022-07-23T08:10:41;28.40;99.90
21163;DHT22;10739;52.198;20.908;2022-07-23T08:13:07;28.40;99.90
21163;DHT22;10739;52.198;20.908;2022-07-23T08:15:34;28.60;99.90
21163;DHT22;10739;52.198;20.908;2022-07-23T08:18:00;28.80;99.90
21163;DHT22;10739;52.198;20.908;2022-07-23T08:20:27;28.90;99.90
21163;DHT22;10739;52.198;20.908;2022-07-23T08:22:58;29.00;99.90
21163;DHT22;10739;52.198;20.908;2022-07-23T08:25:30;29.20;99.90
21163;DHT22;10739;52.198;20.908;2022-07-23T08:28:00;29.10;99.90
21163;DHT22;10739;52.198;20.908;2022-07-23T08:30:28;28.90;99.90
21163;DHT22;10739;52.198;20.908;2022-07-23T08:33:06;28.90;99.90
21163;DHT22;10739;52.198;20.908;2022-07-23T08:35:49;29.10;99.90
21163;DHT22;10739;52.198;20.908;2022-07-23T08:38:20;29.10;99.90
21163;DHT22;10739;52.198;20.908;2022-07-23T08:40:49;29.40;99.90
21163;DHT22;10739;52.198;20.908;2022-07-23T08:43:20;29.60;99.90
21163;DHT22;10739;52.198;20.908;2022-07-23T08:45:51;29.50;99.90
21163;DHT22;10739;52.198;20.908;2022-07-23T08:48:20;29.60;99.90
21163;DHT22;10739;52.198;20.908;2022-07-23T08:50:51;29.30;99.90
21163;DHT22;10739;52.198;20.908;2022-07-23T08:53:26;29.30;99.90
21163;DHT22;10739;52.198;20.908;2022-07-23T08:55:56;29.60;99.90
21163;DHT22;10739;52.198;20.908;2022-07-23T08:58:24;29.70;99.90
21163;DHT22;10739;52.198;20.908;2022-07-23T09:00:51;29.90;99.90
21163;DHT22;10739;52.198;20.908;2022-07-23T09:03:23;30.10;99.90
21163;DHT22;10739;52.198;20.908;2022-07-23T09:05:55;30.40;99.90
21163;DHT22;10739;52.198;20.908;2022-07-23T09:08:25;30.70;99.90
21163;DHT22;10739;52.198;20.908;2022-07-23T09:11:16;31.10;99.90
21163;DHT22;10739;52.198;20.908;2022-07-23T09:13:47;30.90;99.90
21163;DHT22;10739;52.198;20.908;2022-07-23T09:16:31;31.00;99.90
21163;DHT22;10739;52.198;20.908;2022-07-23T09:19:01;30.70;99.90
21163;DHT22;10739;52.198;20.908;2022-07-23T09:21:35;30.90;99.90
21163;DHT22;10739;52.198;20.908;2022-07-23T09:24:09;30.80;99.90
21163;DHT22;10739;52.198;20.908;2022-07-23T09:26:44;30.80;99.90
21163;DHT22;10739;52.198;20.908;2022-07-23T09:31:52;30.90;99.90
21163;DHT22;10739;52.198;20.908;2022-07-23T09:34:22;31.20;99.90
21163;DHT22;10739;52.198;20.908;2022-07-23T09:36:52;31.00;99.90
21163;DHT22;10739;52.198;20.908;2022-07-23T09:39:31;31.00;99.90
21163;DHT22;10739;52.198;20.908;2022-07-23T09:42:13;31.40;99.90
21163;DHT22;10739;52.198;20.908;2022-07-23T09:44:43;32.00;99.90
21163;DHT22;10739;52.198;20.908;2022-07-23T09:47:11;32.40;99.90
21163;DHT22;10739;52.198;20.908;2022-07-23T09:49:37;32.80;99.90
21163;DHT22;10739;52.198;20.908;2022-07-23T09:52:04;32.70;99.90
21163;DHT22;10739;52.198;20.908;2022-07-23T09:54:36;32.40;99.90
21163;DHT22;10739;52.198;20.908;2022-07-23T09:57:12;32.30;99.90
21163;DHT22;10739;52.198;20.908;2022-07-23T09:59:43;32.50;96.70
21163;DHT22;10739;52.198;20.908;2022-07-23T10:02:12;32.80;93.10
21163;DHT22;10739;52.198;20.908;2022-07-23T10:04:40;32.80;94.00
21163;DHT22;10739;52.198;20.908;2022-07-23T10:07:08;32.90;93.30
21163;DHT22;10739;52.198;20.908;2022-07-23T10:09:38;33.40;93.20
21163;DHT22;10739;52.198;20.908;2022-07-23T10:12:10;34.20;92.60
21163;DHT22;10739;52.198;20.908;2022-07-23T10:14:57;34.90;91.60
21163;DHT22;10739;52.198;20.908;2022-07-23T10:17:23;35.40;90.00
21163;DHT22;10739;52.198;20.908;2022-07-23T10:19:50;35.80;86.40
21163;DHT22;10739;52.198;20.908;2022-07-23T10:22:31;36.20;86.00
21163;DHT22;10739;52.198;20.908;2022-07-23T10:25:36;36.80;83.00
21163;DHT22;10739;52.198;20.908;2022-07-23T10:28:43;36.20;85.90
21163;DHT22;10739;52.198;20.908;2022-07-23T10:31:31;36.00;85.60
21163;DHT22;10739;52.198;20.908;2022-07-23T10:34:48;36.70;84.80
21163;DHT22;10739;52.198;20.908;2022-07-23T10:37:32;37.10;80.90
21163;DHT22;10739;52.198;20.908;2022-07-23T10:40:16;36.10;82.90
21163;DHT22;10739;52.198;20.908;2022-07-23T10:42:50;36.20;82.70
21163;DHT22;10739;52.198;20.908;2022-07-23T10:45:22;35.90;82.80
21163;DHT22;10739;52.198;20.908;2022-07-23T10:47:52;36.90;82.50
21163;DHT22;10739;52.198;20.908;2022-07-23T10:58:04;37.80;77.90
21163;DHT22;10739;52.198;20.908;2022-07-23T11:00:32;37.60;76.70
21163;DHT22;10739;52.198;20.908;2022-07-23T11:03:02;37.70;76.40
21163;DHT22;10739;52.198;20.908;2022-07-23T11:08:12;38.10;75.00
21163;DHT22;10739;52.198;20.908;2022-07-23T11:10:54;37.90;75.30
21163;DHT22;10739;52.198;20.908;2022-07-23T11:16:23;39.00;72.90
21163;DHT22;10739;52.198;20.908;2022-07-23T11:18:55;39.20;71.20
21163;DHT22;10739;52.198;20.908;2022-07-23T11:24:00;39.10;70.60
21163;DHT22;10739;52.198;20.908;2022-07-23T11:31:56;38.20;71.50
21163;DHT22;10739;52.198;20.908;2022-07-23T11:34:32;38.90;70.10
21163;DHT22;10739;52.198;20.908;2022-07-23T11:37:03;39.30;69.90
21163;DHT22;10739;52.198;20.908;2022-07-23T11:39:33;39.60;68.10
21163;DHT22;10739;52.198;20.908;2022-07-23T11:42:02;39.40;67.80
21163;DHT22;10739;52.198;20.908;2022-07-23T11:44:36;38.90;69.50
21163;DHT22;10739;52.198;20.908;2022-07-23T11:47:10;38.00;68.80
21163;DHT22;10739;52.198;20.908;2022-07-23T11:49:55;38.60;69.00
21163;DHT22;10739;52.198;20.908;2022-07-23T11:52:22;39.30;66.00
21163;DHT22;10739;52.198;20.908;2022-07-23T11:57:31;39.60;65.40
21163;DHT22;10739;52.198;20.908;2022-07-23T12:02:44;40.00;63.60
21163;DHT22;10739;52.198;20.908;2022-07-23T12:05:31;39.60;63.30
21163;DHT22;10739;52.198;20.908;2022-07-23T12:07:59;39.70;62.90
21163;DHT22;10739;52.198;20.908;2022-07-23T12:13:20;39.40;63.30
21163;DHT22;10739;52.198;20.908;2022-07-23T12:15:53;38.40;66.50
21163;DHT22;10739;52.198;20.908;2022-07-23T12:18:24;38.90;65.70
21163;DHT22;10739;52.198;20.908;2022-07-23T12:20:54;39.50;63.10
21163;DHT22;10739;52.198;20.908;2022-07-23T12:23:27;39.10;64.90
21163;DHT22;10739;52.198;20.908;2022-07-23T12:25:53;38.60;64.30
21163;DHT22;10739;52.198;20.908;2022-07-23T12:28:31;38.70;63.90
21163;DHT22;10739;52.198;20.908;2022-07-23T12:30:59;38.70;64.00
21163;DHT22;10739;52.198;20.908;2022-07-23T12:33:29;38.80;63.30
21163;DHT22;10739;52.198;20.908;2022-07-23T12:36:05;38.70;64.00
21163;DHT22;10739;52.198;20.908;2022-07-23T12:38:41;38.50;63.40
21163;DHT22;10739;52.198;20.908;2022-07-23T12:41:10;38.40;64.10
21163;DHT22;10739;52.198;20.908;2022-07-23T12:43:38;38.60;63.10
21163;DHT22;10739;52.198;20.908;2022-07-23T12:51:25;39.70;61.00
21163;DHT22;10739;52.198;20.908;2022-07-23T12:54:08;39.70;63.00
21163;DHT22;10739;52.198;20.908;2022-07-23T12:56:37;40.00;61.30
21163;DHT22;10739;52.198;20.908;2022-07-23T12:59:12;40.10;61.10
21163;DHT22;10739;52.198;20.908;2022-07-23T13:01:44;39.70;61.80
21163;DHT22;10739;52.198;20.908;2022-07-23T13:04:22;39.30;62.30
21163;DHT22;10739;52.198;20.908;2022-07-23T13:06:51;38.90;62.20
21163;DHT22;10739;52.198;20.908;2022-07-23T13:09:25;38.80;62.90
21163;DHT22;10739;52.198;20.908;2022-07-23T13:11:55;38.40;62.90
21163;DHT22;10739;52.198;20.908;2022-07-23T13:14:22;38.00;64.10
21163;DHT22;10739;52.198;20.908;2022-07-23T13:16:51;37.40;63.90
21163;DHT22;10739;52.198;20.908;2022-07-23T13:19:19;37.20;64.90
21163;DHT22;10739;52.198;20.908;2022-07-23T13:21:48;36.60;67.00
21163;DHT22;10739;52.198;20.908;2022-07-23T13:24:15;36.40;68.00
21163;DHT22;10739;52.198;20.908;2022-07-23T13:26:42;35.90;69.80
21163;DHT22;10739;52.198;20.908;2022-07-23T13:29:08;35.60;68.50
21163;DHT22;10739;52.198;20.908;2022-07-23T13:31:36;35.30;70.10
21163;DHT22;10739;52.198;20.908;2022-07-23T13:34:04;35.10;71.90
21163;DHT22;10739;52.198;20.908;2022-07-23T13:36:30;35.40;70.30
21163;DHT22;10739;52.198;20.908;2022-07-23T13:38:56;35.60;69.40
21163;DHT22;10739;52.198;20.908;2022-07-23T13:41:22;35.90;68.90
21163;DHT22;10739;52.198;20.908;2022-07-23T13:43:51;36.60;67.40
21163;DHT22;10739;52.198;20.908;2022-07-23T13:46:17;37.10;66.60
21163;DHT22;10739;52.198;20.908;2022-07-23T13:48:43;37.00;66.80
21163;DHT22;10739;52.198;20.908;2022-07-23T13:51:09;36.80;67.60
21163;DHT22;10739;52.198;20.908;2022-07-23T13:53:36;36.20;68.00
21163;DHT22;10739;52.198;20.908;2022-07-23T13:56:02;35.70;69.90
21163;DHT22;10739;52.198;20.908;2022-07-23T13:58:29;35.20;69.70
21163;DHT22;10739;52.198;20.908;2022-07-23T14:00:59;34.90;71.30
21163;DHT22;10739;52.198;20.908;2022-07-23T14:03:26;34.10;72.40
21163;DHT22;10739;52.198;20.908;2022-07-23T14:05:52;33.30;73.70
21163;DHT22;10739;52.198;20.908;2022-07-23T14:08:20;32.90;75.50
21163;DHT22;10739;52.198;20.908;2022-07-23T14:10:46;32.80;76.30
21163;DHT22;10739;52.198;20.908;2022-07-23T14:13:12;32.60;78.40
21163;DHT22;10739;52.198;20.908;2022-07-23T14:15:38;32.50;79.80
21163;DHT22;10739;52.198;20.908;2022-07-23T14:18:06;32.30;79.60
21163;DHT22;10739;52.198;20.908;2022-07-23T14:20:33;32.20;80.50
21163;DHT22;10739;52.198;20.908;2022-07-23T14:22:59;32.10;81.20
21163;DHT22;10739;52.198;20.908;2022-07-23T14:25:26;32.00;81.10
21163;DHT22;10739;52.198;20.908;2022-07-23T14:27:53;31.90;84.10
21163;DHT22;10739;52.198;20.908;2022-07-23T14:30:20;31.70;84.40
21163;DHT22;10739;52.198;20.908;2022-07-23T14:32:48;31.50;82.80
21163;DHT22;10739;52.198;20.908;2022-07-23T14:35:15;29.10;94.20
21163;DHT22;10739;52.198;20.908;2022-07-23T14:37:41;26.80;99.90
21163;DHT22;10739;52.198;20.908;2022-07-23T14:40:08;26.00;99.90
21163;DHT22;10739;52.198;20.908;2022-07-23T14:42:34;25.30;99.90
21163;DHT22;10739;52.198;20.908;2022-07-23T14:45:01;24.50;99.90
21163;DHT22;10739;52.198;20.908;2022-07-23T14:47:27;24.30;99.90
21163;DHT22;10739;52.198;20.908;2022-07-23T14:49:53;23.40;99.90
21163;DHT22;10739;52.198;20.908;2022-07-23T14:52:19;22.30;99.90
21163;DHT22;10739;52.198;20.908;2022-07-23T14:54:45;21.90;99.90
21163;DHT22;10739;52.198;20.908;2022-07-23T14:57:13;21.50;99.90
21163;DHT22;10739;52.198;20.908;2022-07-23T14:59:39;21.20;99.90
21163;DHT22;10739;52.198;20.908;2022-07-23T15:02:07;20.90;99.90
21163;DHT22;10739;52.198;20.908;2022-07-23T15:04:34;20.50;99.90
21163;DHT22;10739;52.198;20.908;2022-07-23T15:07:00;20.50;99.90
21163;DHT22;10739;52.198;20.908;2022-07-23T15:09:26;20.40;99.90
21163;DHT22;10739;52.198;20.908;2022-07-23T15:11:52;20.40;99.90
21163;DHT22;10739;52.198;20.908;2022-07-23T15:14:19;20.40;99.90
21163;DHT22;10739;52.198;20.908;2022-07-23T15:16:45;20.40;99.90
21163;DHT22;10739;52.198;20.908;2022-07-23T15:19:11;20.20;99.90
21163;DHT22;10739;52.198;20.908;2022-07-23T15:21:37;20.20;99.90
21163;DHT22;10739;52.198;20.908;2022-07-23T15:24:03;20.20;99.90
21163;DHT22;10739;52.198;20.908;2022-07-23T15:26:30;20.10;99.90
21163;DHT22;10739;52.198;20.908;2022-07-23T15:28:57;20.00;99.90
21163;DHT22;10739;52.198;20.908;2022-07-23T15:31:24;19.90;99.90
21163;DHT22;10739;52.198;20.908;2022-07-23T15:33:51;20.00;99.90
21163;DHT22;10739;52.198;20.908;2022-07-23T15:36:18;20.10;99.90
21163;DHT22;10739;52.198;20.908;2022-07-23T15:38:46;20.10;99.90
21163;DHT22;10739;52.198;20.908;2022-07-23T15:41:12;20.10;99.90
21163;DHT22;10739;52.198;20.908;2022-07-23T15:43:39;20.20;99.90
21163;DHT22;10739;52.198;20.908;2022-07-23T15:46:05;20.20;99.90
21163;DHT22;10739;52.198;20.908;2022-07-23T15:48:37;20.20;99.90
21163;DHT22;10739;52.198;20.908;2022-07-23T15:51:04;20.20;99.90
21163;DHT22;10739;52.198;20.908;2022-07-23T15:53:32;20.30;99.90
21163;DHT22;10739;52.198;20.908;2022-07-23T15:55:59;20.30;99.90
21163;DHT22;10739;52.198;20.908;2022-07-23T15:58:28;20.30;99.90
21163;DHT22;10739;52.198;20.908;2022-07-23T16:00:55;20.30;99.90